sensor_id;sensor_type;location;lat;lon;timestamp;pressure;altitude;pressure_sealevel;temperature;humidity
67434;BME280;54305;47.950;6.572;2023-04-28T00:01:41;94135.97;;;13.19;100.00
67434;BME280;54305;47.950;6.572;2023-04-28T00:04:06;94133.00;;;13.08;100.00
67434;BME280;54305;47.950;6.572;2023-04-28T00:06:31;94141.09;;;12.84;100.00
67434;BME280;54305;47.950;6.572;2023-04-28T00:08:57;94148.09;;;12.69;100.00
67434;BME280;54305;47.950;6.572;2023-04-28T00:11:22;94139.78;;;12.51;100.00
67434;BME280;54305;47.950;6.572;2023-04-28T00:13:47;94131.81;;;12.30;100.00
67434;BME280;54305;47.950;6.572;2023-04-28T00:16:13;94120.69;;;12.13;100.00
67434;BME280;54305;47.950;6.572;2023-04-28T00:18:38;94130.66;;;12.10;100.00
67434;BME280;54305;47.950;6.572;2023-04-28T00:21:03;94131.63;;;12.09;100.00
67434;BME280;54305;47.950;6.572;2023-04-28T00:23:29;94132.47;;;11.87;100.00
67434;BME280;54305;47.950;6.572;2023-04-28T00:25:54;94128.22;;;11.86;100.00
67434;BME280;54305;47.950;6.572;2023-04-28T00:28:21;94125.31;;;11.81;100.00
67434;BME280;54305;47.950;6.572;2023-04-28T00:30:46;94112.75;;;11.54;100.00
67434;BME280;54305;47.950;6.572;2023-04-28T00:33:12;94129.56;;;11.51;100.00
67434;BME280;54305;47.950;6.572;2023-04-28T00:35:38;94119.25;;;11.58;100.00
67434;BME280;54305;47.950;6.572;2023-04-28T00:38:03;94113.38;;;11.64;100.00
67434;BME280;54305;47.950;6.572;2023-04-28T00:40:32;94109.78;;;11.65;100.00
67434;BME280;54305;47.950;6.572;2023-04-28T00:43:00;94092.81;;;11.69;100.00
67434;BME280;54305;47.950;6.572;2023-04-28T00:45:26;94093.91;;;11.74;100.00
67434;BME280;54305;47.950;6.572;2023-04-28T00:47:51;94084.63;;;11.72;100.00
67434;BME280;54305;47.950;6.572;2023-04-28T00:50:16;94094.09;;;11.73;100.00
67434;BME280;54305;47.950;6.572;2023-04-28T00:52:42;94087.16;;;11.80;100.00
67434;BME280;54305;47.950;6.572;2023-04-28T00:55:08;94086.47;;;11.86;100.00
67434;BME280;54305;47.950;6.572;2023-04-28T00:57:33;94086.75;;;11.91;100.00
67434;BME280;54305;47.950;6.572;2023-04-28T00:59:59;94089.72;;;11.88;100.00
67434;BME280;54305;47.950;6.572;2023-04-28T01:02:25;94088.72;;;11.89;100.00
67434;BME280;54305;47.950;6.572;2023-04-28T01:04:50;94089.34;;;11.91;100.00
67434;BME280;54305;47.950;6.572;2023-04-28T01:07:16;94088.44;;;11.84;100.00
67434;BME280;54305;47.950;6.572;2023-04-28T01:09:41;94090.44;;;11.82;100.00
67434;BME280;54305;47.950;6.572;2023-04-28T01:12:08;94078.00;;;11.84;100.00
67434;BME280;54305;47.950;6.572;2023-04-28T01:14:33;94076.03;;;11.86;100.00
67434;BME280;54305;47.950;6.572;2023-04-28T01:16:59;94072.78;;;11.84;100.00
67434;BME280;54305;47.950;6.572;2023-04-28T01:19:24;94080.28;;;11.87;100.00
67434;BME280;54305;47.950;6.572;2023-04-28T01:21:50;94079.91;;;11.90;100.00
67434;BME280;54305;47.950;6.572;2023-04-28T01:24:15;94081.25;;;11.86;100.00
67434;BME280;54305;47.950;6.572;2023-04-28T01:26:40;94079.63;;;11.85;100.00
67434;BME280;54305;47.950;6.572;2023-04-28T01:29:05;94073.41;;;11.86;100.00
67434;BME280;54305;47.950;6.572;2023-04-28T01:31:31;94068.19;;;11.86;100.00
67434;BME280;54305;47.950;6.572;2023-04-28T01:33:56;94072.09;;;11.90;100.00
67434;BME280;54305;47.950;6.572;2023-04-28T01:36:21;94068.84;;;11.88;100.00
67434;BME280;54305;47.950;6.572;2023-04-28T01:38:48;94065.88;;;11.91;100.00
67434;BME280;54305;47.950;6.572;2023-04-28T01:41:13;94069.75;;;11.95;100.00
67434;BME280;54305;47.950;6.572;2023-04-28T01:43:38;94066.53;;;11.93;100.00
67434;BME280;54305;47.950;6.572;2023-04-28T01:46:03;94067.25;;;11.87;100.00
67434;BME280;54305;47.950;6.572;2023-04-28T01:48:29;94072.78;;;11.84;100.00
67434;BME280;54305;47.950;6.572;2023-04-28T01:50:54;94064.81;;;11.85;100.00
67434;BME280;54305;47.950;6.572;2023-04-28T01:53:19;94070.47;;;11.89;100.00
67434;BME280;54305;47.950;6.572;2023-04-28T01:55:45;94075.34;;;11.92;100.00
67434;BME280;54305;47.950;6.572;2023-04-28T01:58:11;94080.00;;;11.82;100.00
67434;BME280;54305;47.950;6.572;2023-04-28T02:00:36;94079.63;;;11.85;100.00
67434;BME280;54305;47.950;6.572;2023-04-28T02:03:01;94080.44;;;11.85;100.00
67434;BME280;54305;47.950;6.572;2023-04-28T02:05:27;94088.56;;;11.90;100.00
67434;BME280;54305;47.950;6.572;2023-04-28T02:07:52;94090.72;;;11.87;100.00
67434;BME280;54305;47.950;6.572;2023-04-28T02:10:17;94091.41;;;11.81;100.00
67434;BME280;54305;47.950;6.572;2023-04-28T02:12:42;94087.81;;;11.82;100.00
67434;BME280;54305;47.950;6.572;2023-04-28T02:15:08;94094.56;;;11.91;100.00
67434;BME280;54305;47.950;6.572;2023-04-28T02:17:33;94088.72;;;11.89;100.00
67434;BME280;54305;47.950;6.572;2023-04-28T02:19:58;94088.09;;;11.87;100.00
67434;BME280;54305;47.950;6.572;2023-04-28T02:22:24;94097.72;;;11.86;100.00
67434;BME280;54305;47.950;6.572;2023-04-28T02:24:49;94094.25;;;11.94;100.00
67434;BME280;54305;47.950;6.572;2023-04-28T02:27:15;94098.47;;;11.95;100.00
67434;BME280;54305;47.950;6.572;2023-04-28T02:29:40;94091.00;;;11.92;100.00
67434;BME280;54305;47.950;6.572;2023-04-28T02:32:06;94096.84;;;11.94;100.00
67434;BME280;54305;47.950;6.572;2023-04-28T02:34:32;94094.13;;;11.87;100.00
67434;BME280;54305;47.950;6.572;2023-04-28T02:36:57;94096.44;;;11.82;100.00
67434;BME280;54305;47.950;6.572;2023-04-28T02:39:22;94101.78;;;11.89;100.00
67434;BME280;54305;47.950;6.572;2023-04-28T02:41:50;94098.88;;;11.84;100.00
67434;BME280;54305;47.950;6.572;2023-04-28T02:44:25;94098.53;;;11.87;100.00
67434;BME280;54305;47.950;6.572;2023-04-28T02:46:51;94106.09;;;11.82;100.00
67434;BME280;54305;47.950;6.572;2023-04-28T02:49:16;94110.03;;;11.78;100.00
67434;BME280;54305;47.950;6.572;2023-04-28T02:51:41;94096.31;;;11.76;100.00
67434;BME280;54305;47.950;6.572;2023-04-28T02:54:06;94096.97;;;11.78;100.00
67434;BME280;54305;47.950;6.572;2023-04-28T02:56:32;94101.09;;;11.72;100.00
67434;BME280;54305;47.950;6.572;2023-04-28T02:58:57;94089.84;;;11.72;100.00
67434;BME280;54305;47.950;6.572;2023-04-28T03:01:23;94088.31;;;11.77;100.00
67434;BME280;54305;47.950;6.572;2023-04-28T03:03:48;94085.88;;;11.76;100.00
67434;BME280;54305;47.950;6.572;2023-04-28T03:06:13;94081.94;;;11.80;100.00
67434;BME280;54305;47.950;6.572;2023-04-28T03:08:38;94086.84;;;11.83;100.00
67434;BME280;54305;47.950;6.572;2023-04-28T03:11:04;94080.44;;;11.85;100.00
67434;BME280;54305;47.950;6.572;2023-04-28T03:13:29;94083.22;;;11.84;100.00
67434;BME280;54305;47.950;6.572;2023-04-28T03:15:55;94083.84;;;11.86;100.00
67434;BME280;54305;47.950;6.572;2023-04-28T03:18:20;94071.97;;;11.83;100.00
67434;BME280;54305;47.950;6.572;2023-04-28T03:20:46;94073.13;;;11.81;100.00
67434;BME280;54305;47.950;6.572;2023-04-28T03:23:11;94078.00;;;11.84;100.00
67434;BME280;54305;47.950;6.572;2023-04-28T03:25:37;94072.78;;;11.84;100.00
67434;BME280;54305;47.950;6.572;2023-04-28T03:28:02;94069.19;;;11.85;100.00
67434;BME280;54305;47.950;6.572;2023-04-28T03:30:27;94072.47;;;11.87;100.00
67434;BME280;54305;47.950;6.572;2023-04-28T03:32:53;94082.91;;;11.87;100.00
67434;BME280;54305;47.950;6.572;2023-04-28T03:35:18;94081.91;;;11.88;100.00
67434;BME280;54305;47.950;6.572;2023-04-28T03:37:43;94072.50;;;11.79;100.00
67434;BME280;54305;47.950;6.572;2023-04-28T03:40:09;94067.56;;;11.84;100.00
67434;BME280;54305;47.950;6.572;2023-04-28T03:42:34;94066.94;;;11.82;100.00
67434;BME280;54305;47.950;6.572;2023-04-28T03:44:59;94070.53;;;11.81;100.00
67434;BME280;54305;47.950;6.572;2023-04-28T03:47:25;94067.91;;;11.81;100.00
67434;BME280;54305;47.950;6.572;2023-04-28T03:49:50;94062.34;;;11.84;100.00
67434;BME280;54305;47.950;6.572;2023-04-28T03:52:16;94060.75;;;11.83;100.00
67434;BME280;54305;47.950;6.572;2023-04-28T03:54:41;94058.59;;;11.86;100.00
67434;BME280;54305;47.950;6.572;2023-04-28T03:57:06;94057.25;;;11.90;100.00
67434;BME280;54305;47.950;6.572;2023-04-28T03:59:32;94061.31;;;11.93;100.00
67434;BME280;54305;47.950;6.572;2023-04-28T04:01:57;94056.81;;;11.87;100.00
67434;BME280;54305;47.950;6.572;2023-04-28T04:04:22;94059.56;;;11.85;100.00
67434;BME280;54305;47.950;6.572;2023-04-28T04:06:47;94061.03;;;11.88;100.00
67434;BME280;54305;47.950;6.572;2023-04-28T04:09:13;94063.63;;;11.88;100.00
67434;BME280;54305;47.950;6.572;2023-04-28T04:11:38;94061.66;;;11.90;100.00
67434;BME280;54305;47.950;6.572;2023-04-28T04:14:03;94058.03;;;11.91;100.00
67434;BME280;54305;47.950;6.572;2023-04-28T04:16:30;94058.03;;;11.91;100.00
67434;BME280;54305;47.950;6.572;2023-04-28T04:18:55;94061.66;;;11.90;100.00
67434;BME280;54305;47.950;6.572;2023-04-28T04:21:20;94057.13;;;11.84;100.00
67434;BME280;54305;47.950;6.572;2023-04-28T04:23:46;94054.53;;;11.84;100.00
67434;BME280;54305;47.950;6.572;2023-04-28T04:26:11;94056.16;;;11.85;100.00
67434;BME280;54305;47.950;6.572;2023-04-28T04:28:36;94051.91;;;11.84;100.00
67434;BME280;54305;47.950;6.572;2023-04-28T04:31:01;94056.31;;;11.83;100.00
67434;BME280;54305;47.950;6.572;2023-04-28T04:33:27;94055.88;;;11.80;100.00
67434;BME280;54305;47.950;6.572;2023-04-28T04:35:53;94052.25;;;11.81;100.00
67434;BME280;54305;47.950;6.572;2023-04-28T04:38:18;94052.63;;;11.78;100.00
67434;BME280;54305;47.950;6.572;2023-04-28T04:40:43;94047.03;;;11.81;100.00
67434;BME280;54305;47.950;6.572;2023-04-28T04:43:08;94050.66;;;11.80;100.00
67434;BME280;54305;47.950;6.572;2023-04-28T04:45:34;94043.09;;;11.85;100.00
67434;BME280;54305;47.950;6.572;2023-04-28T04:47:59;94048.22;;;11.78;100.00
67434;BME280;54305;47.950;6.572;2023-04-28T04:50:24;94047.03;;;11.81;100.00
67434;BME280;54305;47.950;6.572;2023-04-28T04:52:50;94048.84;;;11.80;100.00
67434;BME280;54305;47.950;6.572;2023-04-28T04:55:15;94051.47;;;11.80;100.00
67434;BME280;54305;47.950;6.572;2023-04-28T04:57:40;94053.53;;;11.85;100.00
67434;BME280;54305;47.950;6.572;2023-04-28T05:00:06;94055.81;;;11.88;100.00
67434;BME280;54305;47.950;6.572;2023-04-28T05:02:31;94048.69;;;11.82;100.00
67434;BME280;54305;47.950;6.572;2023-04-28T05:04:59;94053.91;;;11.82;100.00
67434;BME280;54305;47.950;6.572;2023-04-28T05:07:25;94051.31;;;11.82;100.00
67434;BME280;54305;47.950;6.572;2023-04-28T05:09:50;94047.88;;;11.81;100.00
67434;BME280;54305;47.950;6.572;2023-04-28T05:12:15;94047.31;;;11.86;100.00
67434;BME280;54305;47.950;6.572;2023-04-28T05:14:43;94048.31;;;11.85;100.00
67434;BME280;54305;47.950;6.572;2023-04-28T05:17:08;94041.94;;;11.87;100.00
67434;BME280;54305;47.950;6.572;2023-04-28T05:19:33;94046.00;;;11.90;100.00
67434;BME280;54305;47.950;6.572;2023-04-28T05:21:59;94038.81;;;11.92;100.00
67434;BME280;54305;47.950;6.572;2023-04-28T05:24:25;94050.03;;;11.92;100.00
67434;BME280;54305;47.950;6.572;2023-04-28T05:26:50;94035.66;;;11.96;100.00
67434;BME280;54305;47.950;6.572;2023-04-28T05:29:16;94046.94;;;11.97;100.00
67434;BME280;54305;47.950;6.572;2023-04-28T05:31:41;94039.00;;;11.90;100.00
67434;BME280;54305;47.950;6.572;2023-04-28T05:34:06;94047.28;;;11.94;100.00
67434;BME280;54305;47.950;6.572;2023-04-28T05:36:32;94041.34;;;12.00;100.00
67434;BME280;54305;47.950;6.572;2023-04-28T05:38:57;94045.31;;;11.96;100.00
67434;BME280;54305;47.950;6.572;2023-04-28T05:41:22;94041.34;;;12.00;100.00
67434;BME280;54305;47.950;6.572;2023-04-28T05:43:48;94055.66;;;12.04;100.00
67434;BME280;54305;47.950;6.572;2023-04-28T05:46:15;94055.75;;;11.96;100.00
67434;BME280;54305;47.950;6.572;2023-04-28T05:48:40;94066.88;;;11.90;100.00
67434;BME280;54305;47.950;6.572;2023-04-28T05:51:05;94075.56;;;11.82;100.00
67434;BME280;54305;47.950;6.572;2023-04-28T05:53:31;94083.56;;;11.81;100.00
67434;BME280;54305;47.950;6.572;2023-04-28T05:55:56;94083.00;;;11.71;100.00
67434;BME280;54305;47.950;6.572;2023-04-28T05:58:21;94077.66;;;11.64;100.00
67434;BME280;54305;47.950;6.572;2023-04-28T06:00:46;94079.47;;;11.64;100.00
67434;BME280;54305;47.950;6.572;2023-04-28T06:03:12;94092.50;;;11.64;100.00
67434;BME280;54305;47.950;6.572;2023-04-28T06:05:38;94093.84;;;11.60;100.00
67434;BME280;54305;47.950;6.572;2023-04-28T06:08:04;94111.28;;;11.59;100.00
67434;BME280;54305;47.950;6.572;2023-04-28T06:10:29;94100.66;;;11.61;100.00
67434;BME280;54305;47.950;6.572;2023-04-28T06:12:54;94105.78;;;11.46;100.00
67434;BME280;54305;47.950;6.572;2023-04-28T06:15:20;94105.34;;;11.43;100.00
67434;BME280;54305;47.950;6.572;2023-04-28T06:17:46;94117.72;;;11.41;100.00
67434;BME280;54305;47.950;6.572;2023-04-28T06:20:11;94119.03;;;11.37;100.00
67434;BME280;54305;47.950;6.572;2023-04-28T06:22:38;94123.25;;;11.38;100.00
67434;BME280;54305;47.950;6.572;2023-04-28T06:25:03;94109.72;;;11.42;100.00
67434;BME280;54305;47.950;6.572;2023-04-28T06:27:28;94114.47;;;11.39;100.00
67434;BME280;54305;47.950;6.572;2023-04-28T06:29:56;94113.78;;;11.45;100.00
67434;BME280;54305;47.950;6.572;2023-04-28T06:32:21;94118.66;;;11.48;100.00
67434;BME280;54305;47.950;6.572;2023-04-28T06:34:47;94112.50;;;11.41;100.00
67434;BME280;54305;47.950;6.572;2023-04-28T06:37:12;94116.22;;;11.46;100.00
67434;BME280;54305;47.950;6.572;2023-04-28T06:39:37;94123.59;;;11.43;100.00
67434;BME280;54305;47.950;6.572;2023-04-28T06:42:02;94120.16;;;11.42;100.00
67434;BME280;54305;47.950;6.572;2023-04-28T06:44:28;94128.47;;;11.38;100.00
67434;BME280;54305;47.950;6.572;2023-04-28T06:46:53;94126.22;;;11.35;100.00
67434;BME280;54305;47.950;6.572;2023-04-28T06:49:19;94126.84;;;11.37;100.00
67434;BME280;54305;47.950;6.572;2023-04-28T06:51:44;94120.97;;;11.43;100.00
67434;BME280;54305;47.950;6.572;2023-04-28T06:54:09;94119.00;;;11.45;100.00
67434;BME280;54305;47.950;6.572;2023-04-28T06:56:35;94124.22;;;11.45;100.00
67434;BME280;54305;47.950;6.572;2023-04-28T06:59:00;94121.59;;;11.45;100.00
67434;BME280;54305;47.950;6.572;2023-04-28T07:01:27;94111.13;;;11.53;100.00
67434;BME280;54305;47.950;6.572;2023-04-28T07:03:52;94116.00;;;11.56;100.00
67434;BME280;54305;47.950;6.572;2023-04-28T07:06:18;94117.59;;;11.57;100.00
67434;BME280;54305;47.950;6.572;2023-04-28T07:08:44;94125.75;;;11.62;100.00
67434;BME280;54305;47.950;6.572;2023-04-28T07:11:09;94132.25;;;11.66;100.00
67434;BME280;54305;47.950;6.572;2023-04-28T07:13:34;94130.19;;;11.61;100.00
67434;BME280;54305;47.950;6.572;2023-04-28T07:15:59;94132.63;;;11.63;100.00
67434;BME280;54305;47.950;6.572;2023-04-28T07:18:25;94127.88;;;11.66;100.00
67434;BME280;54305;47.950;6.572;2023-04-28T07:20:50;94123.16;;;11.62;100.00
67434;BME280;54305;47.950;6.572;2023-04-28T07:23:17;94131.47;;;11.65;100.00
67434;BME280;54305;47.950;6.572;2023-04-28T07:25:43;94129.03;;;11.64;100.00
67434;BME280;54305;47.950;6.572;2023-04-28T07:28:08;94128.19;;;11.63;100.00
67434;BME280;54305;47.950;6.572;2023-04-28T07:30:34;94127.53;;;11.69;100.00
67434;BME280;54305;47.950;6.572;2023-04-28T07:32:59;94146.88;;;11.75;100.00
67434;BME280;54305;47.950;6.572;2023-04-28T07:35:25;94142.25;;;11.85;100.00
67434;BME280;54305;47.950;6.572;2023-04-28T07:37:50;94144.69;;;11.86;100.00
67434;BME280;54305;47.950;6.572;2023-04-28T07:40:16;94149.44;;;11.83;100.00
67434;BME280;54305;47.950;6.572;2023-04-28T07:42:41;94148.28;;;11.85;100.00
67434;BME280;54305;47.950;6.572;2023-04-28T07:45:07;94154.25;;;11.94;100.00
67434;BME280;54305;47.950;6.572;2023-04-28T07:47:32;94154.91;;;11.96;100.00
67434;BME280;54305;47.950;6.572;2023-04-28T07:49:58;94158.50;;;11.95;100.00
67434;BME280;54305;47.950;6.572;2023-04-28T07:52:27;94166.03;;;11.90;100.00
67434;BME280;54305;47.950;6.572;2023-04-28T07:54:52;94159.53;;;11.86;100.00
67434;BME280;54305;47.950;6.572;2023-04-28T07:57:17;94166.84;;;11.90;100.00
67434;BME280;54305;47.950;6.572;2023-04-28T07:59:42;94161.63;;;11.90;100.00
67434;BME280;54305;47.950;6.572;2023-04-28T08:02:08;94161.47;;;11.92;100.00
67434;BME280;54305;47.950;6.572;2023-04-28T08:04:33;94164.38;;;11.97;100.00
67434;BME280;54305;47.950;6.572;2023-04-28T08:06:59;94166.91;;;12.05;100.00
67434;BME280;54305;47.950;6.572;2023-04-28T08:09:24;94175.38;;;12.07;100.00
67434;BME280;54305;47.950;6.572;2023-04-28T08:11:50;94170.78;;;12.09;100.00
67434;BME280;54305;47.950;6.572;2023-04-28T08:14:15;94174.72;;;12.05;100.00
67434;BME280;54305;47.950;6.572;2023-04-28T08:16:40;94181.59;;;12.06;100.00
67434;BME280;54305;47.950;6.572;2023-04-28T08:19:06;94178.69;;;12.01;100.00
67434;BME280;54305;47.950;6.572;2023-04-28T08:21:31;94175.72;;;12.04;100.00
67434;BME280;54305;47.950;6.572;2023-04-28T08:23:57;94189.13;;;12.01;100.00
67434;BME280;54305;47.950;6.572;2023-04-28T08:26:22;94188.19;;;11.94;100.00
67434;BME280;54305;47.950;6.572;2023-04-28T08:28:48;94182.63;;;11.97;100.00
67434;BME280;54305;47.950;6.572;2023-04-28T08:31:14;94194.69;;;11.98;100.00
67434;BME280;54305;47.950;6.572;2023-04-28T08:33:39;94205.13;;;11.98;100.00
67434;BME280;54305;47.950;6.572;2023-04-28T08:36:08;94209.47;;;11.83;100.00
67434;BME280;54305;47.950;6.572;2023-04-28T08:38:35;94201.88;;;11.96;100.00
67434;BME280;54305;47.950;6.572;2023-04-28T08:41:02;94216.19;;;12.00;100.00
67434;BME280;54305;47.950;6.572;2023-04-28T08:43:28;94219.03;;;11.90;100.00
67434;BME280;54305;47.950;6.572;2023-04-28T08:45:54;94208.72;;;11.97;100.00
67434;BME280;54305;47.950;6.572;2023-04-28T08:48:20;94222.69;;;12.04;100.00
67434;BME280;54305;47.950;6.572;2023-04-28T08:50:52;94229.59;;;11.97;100.00
67434;BME280;54305;47.950;6.572;2023-04-28T08:53:21;94220.09;;;12.04;100.00
67434;BME280;54305;47.950;6.572;2023-04-28T08:55:47;94223.84;;;12.01;100.00
67434;BME280;54305;47.950;6.572;2023-04-28T08:58:14;94214.16;;;12.10;100.00
67434;BME280;54305;47.950;6.572;2023-04-28T09:00:39;94215.81;;;12.11;100.00
67434;BME280;54305;47.950;6.572;2023-04-28T09:03:05;94218.59;;;12.09;100.00
67434;BME280;54305;47.950;6.572;2023-04-28T09:05:32;94217.78;;;12.09;100.00
67434;BME280;54305;47.950;6.572;2023-04-28T09:08:00;94218.72;;;12.16;100.00
67434;BME280;54305;47.950;6.572;2023-04-28T09:10:25;94220.94;;;12.27;100.00
67434;BME280;54305;47.950;6.572;2023-04-28T09:12:52;94224.13;;;12.37;100.00
67434;BME280;54305;47.950;6.572;2023-04-28T09:17:55;94226.78;;;12.29;100.00
67434;BME280;54305;47.950;6.572;2023-04-28T09:22:46;94224.91;;;12.60;100.00
67434;BME280;54305;47.950;6.572;2023-04-28T09:25:12;94227.63;;;12.44;100.00
67434;BME280;54305;47.950;6.572;2023-04-28T09:27:37;94218.00;;;12.44;100.00
67434;BME280;54305;47.950;6.572;2023-04-28T09:30:03;94214.28;;;12.39;100.00
67434;BME280;54305;47.950;6.572;2023-04-28T09:32:28;94228.63;;;12.43;100.00
67434;BME280;54305;47.950;6.572;2023-04-28T09:34:54;94217.88;;;12.60;100.00
67434;BME280;54305;47.950;6.572;2023-04-28T09:37:24;94225.91;;;12.59;100.00
67434;BME280;54305;47.950;6.572;2023-04-28T09:39:51;94219.03;;;12.58;100.00
67434;BME280;54305;47.950;6.572;2023-04-28T09:42:36;94226.97;;;12.50;100.00
67434;BME280;54305;47.950;6.572;2023-04-28T09:45:02;94216.50;;;12.50;100.00
67434;BME280;54305;47.950;6.572;2023-04-28T09:47:28;94214.19;;;12.55;100.00
67434;BME280;54305;47.950;6.572;2023-04-28T09:49:57;94217.66;;;12.70;100.00
67434;BME280;54305;47.950;6.572;2023-04-28T09:52:24;94213.66;;;12.59;100.00
67434;BME280;54305;47.950;6.572;2023-04-28T09:54:50;94222.75;;;12.63;100.00
67434;BME280;54305;47.950;6.572;2023-04-28T09:57:15;94222.06;;;12.47;100.00
67434;BME280;54305;47.950;6.572;2023-04-28T09:59:42;94215.75;;;12.41;100.00
67434;BME280;54305;47.950;6.572;2023-04-28T10:02:11;94214.53;;;12.52;100.00
67434;BME280;54305;47.950;6.572;2023-04-28T10:04:37;94201.53;;;12.66;100.00
67434;BME280;54305;47.950;6.572;2023-04-28T10:07:03;94208.09;;;12.77;100.00
67434;BME280;54305;47.950;6.572;2023-04-28T10:09:28;94207.03;;;12.86;100.00
67434;BME280;54305;47.950;6.572;2023-04-28T10:11:54;94208.03;;;12.85;100.00
67434;BME280;54305;47.950;6.572;2023-04-28T10:14:19;94202.53;;;12.80;100.00
67434;BME280;54305;47.950;6.572;2023-04-28T10:16:45;94210.66;;;12.85;100.00
67434;BME280;54305;47.950;6.572;2023-04-28T10:19:11;94209.59;;;12.94;100.00
67434;BME280;54305;47.950;6.572;2023-04-28T10:21:38;94214.22;;;13.06;100.00
67434;BME280;54305;47.950;6.572;2023-04-28T10:24:17;94206.03;;;13.24;100.00
67434;BME280;54305;47.950;6.572;2023-04-28T10:29:27;94202.88;;;13.43;100.00
67434;BME280;54305;47.950;6.572;2023-04-28T10:34:38;94196.72;;;13.50;100.00
67434;BME280;54305;47.950;6.572;2023-04-28T10:37:03;94194.69;;;13.46;100.00
67434;BME280;54305;47.950;6.572;2023-04-28T10:39:28;94199.97;;;13.52;100.00
67434;BME280;54305;47.950;6.572;2023-04-28T10:41:54;94209.53;;;13.60;100.00
67434;BME280;54305;47.950;6.572;2023-04-28T10:47:04;94206.19;;;13.66;100.00
67434;BME280;54305;47.950;6.572;2023-04-28T10:57:46;94188.75;;;13.73;100.00
67434;BME280;54305;47.950;6.572;2023-04-28T11:00:27;94195.06;;;13.78;100.00
67434;BME280;54305;47.950;6.572;2023-04-28T11:02:53;94188.28;;;13.84;100.00
67434;BME280;54305;47.950;6.572;2023-04-28T11:05:18;94185.78;;;13.76;100.00
67434;BME280;54305;47.950;6.572;2023-04-28T11:10:56;94177.81;;;13.84;100.00
67434;BME280;54305;47.950;6.572;2023-04-28T11:13:28;94175.00;;;14.21;100.00
67434;BME280;54305;47.950;6.572;2023-04-28T11:16:03;94175.78;;;14.84;100.00
67434;BME280;54305;47.950;6.572;2023-04-28T11:18:31;94173.69;;;15.01;100.00
67434;BME280;54305;47.950;6.572;2023-04-28T11:21:02;94167.44;;;15.02;100.00
67434;BME280;54305;47.950;6.572;2023-04-28T11:23:27;94182.38;;;14.53;100.00
67434;BME280;54305;47.950;6.572;2023-04-28T11:25:54;94168.16;;;14.62;100.00
67434;BME280;54305;47.950;6.572;2023-04-28T11:28:19;94157.47;;;14.91;100.00
67434;BME280;54305;47.950;6.572;2023-04-28T11:30:45;94171.34;;;14.85;100.00
67434;BME280;54305;47.950;6.572;2023-04-28T11:33:10;94179.75;;;14.53;100.00
67434;BME280;54305;47.950;6.572;2023-04-28T11:35:42;94174.28;;;14.48;100.00
67434;BME280;54305;47.950;6.572;2023-04-28T11:38:07;94161.41;;;14.32;100.00
67434;BME280;54305;47.950;6.572;2023-04-28T11:40:33;94166.72;;;14.38;100.00
67434;BME280;54305;47.950;6.572;2023-04-28T11:42:58;94166.28;;;14.35;100.00
67434;BME280;54305;47.950;6.572;2023-04-28T11:45:24;94170.78;;;14.41;100.00
67434;BME280;54305;47.950;6.572;2023-04-28T11:47:49;94171.44;;;14.49;100.00
67434;BME280;54305;47.950;6.572;2023-04-28T11:50:14;94159.16;;;14.50;100.00
67434;BME280;54305;47.950;6.572;2023-04-28T11:52:49;94159.75;;;14.73;100.00
67434;BME280;54305;47.950;6.572;2023-04-28T11:55:17;94163.28;;;14.86;100.00
67434;BME280;54305;47.950;6.572;2023-04-28T11:57:45;94155.84;;;14.90;100.00
67434;BME280;54305;47.950;6.572;2023-04-28T12:00:11;94148.34;;;15.14;100.00
67434;BME280;54305;47.950;6.572;2023-04-28T12:02:38;94152.44;;;15.23;100.00
67434;BME280;54305;47.950;6.572;2023-04-28T12:05:06;94154.78;;;15.12;100.00
67434;BME280;54305;47.950;6.572;2023-04-28T12:07:39;94147.97;;;15.17;100.00
67434;BME280;54305;47.950;6.572;2023-04-28T12:10:12;94145.16;;;15.25;100.00
67434;BME280;54305;47.950;6.572;2023-04-28T12:12:39;94140.84;;;15.39;100.00
67434;BME280;54305;47.950;6.572;2023-04-28T12:15:05;94135.03;;;15.50;100.00
67434;BME280;54305;47.950;6.572;2023-04-28T12:19:59;94151.94;;;15.41;100.00
67434;BME280;54305;47.950;6.572;2023-04-28T12:22:25;94147.16;;;15.17;100.00
67434;BME280;54305;47.950;6.572;2023-04-28T12:27:28;94146.75;;;15.47;100.00
67434;BME280;54305;47.950;6.572;2023-04-28T12:29:55;94135.59;;;15.39;100.00
67434;BME280;54305;47.950;6.572;2023-04-28T12:32:43;94147.38;;;15.56;100.00
67434;BME280;54305;47.950;6.572;2023-04-28T12:35:08;94140.72;;;16.33;100.00
67434;BME280;54305;47.950;6.572;2023-04-28T12:37:33;94148.84;;;16.44;100.00
67434;BME280;54305;47.950;6.572;2023-04-28T12:39:59;94148.56;;;16.07;100.00
67434;BME280;54305;47.950;6.572;2023-04-28T12:42:25;94146.19;;;15.65;100.00
67434;BME280;54305;47.950;6.572;2023-04-28T12:44:51;94146.56;;;15.49;100.00
67434;BME280;54305;47.950;6.572;2023-04-28T12:47:16;94149.28;;;15.34;100.00
67434;BME280;54305;47.950;6.572;2023-04-28T12:49:44;94146.00;;;15.26;100.00
67434;BME280;54305;47.950;6.572;2023-04-28T12:52:11;94151.56;;;15.10;100.00
67434;BME280;54305;47.950;6.572;2023-04-28T12:54:36;94158.19;;;15.06;100.00
67434;BME280;54305;47.950;6.572;2023-04-28T12:57:03;94151.59;;;14.89;100.00
67434;BME280;54305;47.950;6.572;2023-04-28T12:59:29;94147.97;;;14.90;100.00
67434;BME280;54305;47.950;6.572;2023-04-28T13:01:54;94159.09;;;14.92;100.00
67434;BME280;54305;47.950;6.572;2023-04-28T13:04:19;94170.53;;;14.84;100.00
67434;BME280;54305;47.950;6.572;2023-04-28T13:06:45;94170.00;;;14.68;100.00
67434;BME280;54305;47.950;6.572;2023-04-28T13:09:11;94163.34;;;14.65;100.00
67434;BME280;54305;47.950;6.572;2023-04-28T13:11:36;94158.16;;;14.72;100.00
67434;BME280;54305;47.950;6.572;2023-04-28T13:14:02;94164.59;;;14.76;100.00